Time;durP1;ratioP1;P1;durP2;ratioP2;P2;SDS_P1;SDS_P2;PMS_P1;PMS_P2;Temp;Humidity;BMP_temperature;BMP_pressure;BME280_temperature;BME280_humidity;BME280_pressure;Samples;Min_cycle;Max_cycle;Signal;HPM_P1;HPM_P2
2021/09/16 00:00:08;;;;;;;2.08;1.38;;;25.90;54.80;;;;;;5044674;28;20025;-57
2021/09/16 00:02:34;;;;;;;2.30;1.50;;;26.00;54.80;;;;;;5044719;28;20052;-56
2021/09/16 00:05:00;;;;;;;1.67;1.20;;;26.00;54.80;;;;;;5057490;28;20067;-52
2021/09/16 00:07:26;;;;;;;1.83;1.27;;;25.90;54.80;;;;;;5044918;28;20037;-58
2021/09/16 00:09:51;;;;;;;1.90;1.40;;;26.00;54.80;;;;;;5039380;28;20087;-58
2021/09/16 00:12:17;;;;;;;1.70;1.20;;;25.90;54.80;;;;;;5039054;28;20072;-57
2021/09/16 00:14:42;;;;;;;1.70;1.20;;;25.90;54.70;;;;;;5028775;28;20080;-58
2021/09/16 00:17:08;;;;;;;1.67;1.20;;;25.90;54.70;;;;;;5035804;28;20556;-59
2021/09/16 00:19:34;;;;;;;1.95;1.23;;;25.90;54.80;;;;;;5040659;28;20067;-57
2021/09/16 00:21:59;;;;;;;1.75;1.25;;;25.90;54.80;;;;;;5043113;28;20047;-56
2021/09/16 00:24:25;;;;;;;2.60;1.50;;;25.90;54.80;;;;;;5045271;28;20041;-58
2021/09/16 00:26:51;;;;;;;2.72;1.50;;;25.90;54.80;;;;;;5046011;28;20112;-54
2021/09/16 00:29:16;;;;;;;1.73;1.27;;;25.90;54.80;;;;;;5046753;28;20438;-58
2021/09/16 00:31:42;;;;;;;2.35;1.30;;;25.90;54.80;;;;;;5039344;28;20029;-58
2021/09/16 00:34:08;;;;;;;1.85;1.30;;;25.90;54.80;;;;;;5044398;28;20029;-51
2021/09/16 00:36:33;;;;;;;1.70;1.30;;;25.90;54.80;;;;;;5039011;28;20786;-59
2021/09/16 00:38:59;;;;;;;2.25;1.45;;;25.90;54.80;;;;;;5040586;28;20131;-52
2021/09/16 00:41:28;;;;;;;2.00;1.23;;;25.90;54.80;;;;;;5029504;28;20029;-57
2021/09/16 00:43:54;;;;;;;1.90;1.30;;;25.80;54.70;;;;;;5040151;28;20033;-59
2021/09/16 00:46:20;;;;;;;1.95;1.30;;;25.80;54.70;;;;;;5042303;28;20432;-47
2021/09/16 00:48:46;;;;;;;2.20;1.30;;;25.80;54.70;;;;;;5041727;28;20148;-59
2021/09/16 00:51:11;;;;;;;1.90;1.30;;;25.80;54.70;;;;;;5042019;28;20733;-58
2021/09/16 00:53:39;;;;;;;2.30;1.40;;;25.80;54.70;;;;;;5036239;28;20021;-59
2021/09/16 00:56:06;;;;;;;1.60;1.10;;;25.80;54.70;;;;;;5038273;28;20473;-51
2021/09/16 00:58:40;;;;;;;2.17;1.30;;;25.80;54.70;;;;;;5044918;28;20090;-52
2021/09/16 01:01:07;;;;;;;1.90;1.23;;;25.80;54.70;;;;;;5047943;28;20041;-51
2021/09/16 01:03:33;;;;;;;1.75;1.30;;;25.80;54.70;;;;;;5032360;28;20021;-53
2021/09/16 01:05:59;;;;;;;2.00;1.30;;;25.80;54.70;;;;;;5035453;28;20034;-58
2021/09/16 01:08:26;;;;;;;1.67;1.10;;;25.70;54.70;;;;;;5037180;28;20135;-51
2021/09/16 01:10:52;;;;;;;2.67;1.20;;;25.80;54.70;;;;;;5038352;28;20375;-56
2021/09/16 01:13:18;;;;;;;1.63;1.20;;;25.80;54.70;;;;;;5034833;28;20059;-49
2021/09/16 01:15:45;;;;;;;1.40;1.20;;;25.80;54.70;;;;;;5039814;28;20500;-51
2021/09/16 01:18:11;;;;;;;1.80;1.30;;;25.80;54.70;;;;;;5043621;28;20062;-49
2021/09/16 01:20:38;;;;;;;1.98;1.35;;;25.70;54.70;;;;;;5041499;28;20580;-52
2021/09/16 01:23:04;;;;;;;1.67;1.20;;;25.70;54.70;;;;;;5047047;28;20039;-51
2021/09/16 01:25:31;;;;;;;1.88;1.23;;;25.70;54.70;;;;;;5040456;28;20033;-54
2021/09/16 01:27:58;;;;;;;2.10;1.27;;;25.70;54.70;;;;;;5042674;28;20030;-54
2021/09/16 01:30:24;;;;;;;1.60;1.10;;;25.70;54.70;;;;;;5041672;28;20028;-54
2021/09/16 01:32:51;;;;;;;1.88;1.27;;;25.70;54.70;;;;;;5039680;28;20521;-57
2021/09/16 01:35:17;;;;;;;1.80;1.20;;;25.70;54.70;;;;;;5032235;28;20124;-58
2021/09/16 01:37:44;;;;;;;1.55;1.08;;;25.70;54.70;;;;;;5035080;28;20021;-51
2021/09/16 01:40:10;;;;;;;1.83;1.20;;;25.70;54.70;;;;;;5039145;28;20072;-54
2021/09/16 01:42:41;;;;;;;2.35;1.40;;;25.70;54.70;;;;;;5040692;28;20037;-59
2021/09/16 01:45:16;;;;;;;2.03;1.40;;;25.70;54.70;;;;;;5040493;28;20025;-53
2021/09/16 01:47:43;;;;;;;2.05;1.40;;;25.70;54.70;;;;;;5041749;28;20033;-57
2021/09/16 01:50:11;;;;;;;1.90;1.35;;;25.70;54.70;;;;;;5037991;28;20029;-52
2021/09/16 01:52:36;;;;;;;2.03;1.50;;;25.70;54.70;;;;;;5033103;28;20152;-58
2021/09/16 01:55:03;;;;;;;1.88;1.35;;;25.70;54.70;;;;;;5029886;28;20104;-52
2021/09/16 01:57:28;;;;;;;1.77;1.15;;;25.70;54.70;;;;;;5060102;28;20031;-55
2021/09/16 01:59:54;;;;;;;1.70;1.20;;;25.70;54.70;;;;;;5045655;28;20349;-54
2021/09/16 02:02:19;;;;;;;2.10;1.27;;;25.70;54.70;;;;;;5038575;28;20062;-57
2021/09/16 02:04:45;;;;;;;1.77;1.30;;;25.70;54.80;;;;;;5031971;28;20104;-60
2021/09/16 02:07:11;;;;;;;1.50;1.20;;;25.60;54.70;;;;;;5031512;28;20029;-58
2021/09/16 02:09:36;;;;;;;1.63;1.13;;;25.70;54.80;;;;;;5044155;28;20926;-51
2021/09/16 02:12:02;;;;;;;2.17;1.40;;;25.60;54.70;;;;;;5038422;28;20025;-58
2021/09/16 02:14:27;;;;;;;1.90;1.25;;;25.60;54.70;;;;;;5041509;28;20114;-56
2021/09/16 02:16:53;;;;;;;2.25;1.20;;;25.60;54.70;;;;;;5037075;28;20551;-51
2021/09/16 02:19:19;;;;;;;1.60;1.17;;;25.60;54.70;;;;;;5045372;28;20048;-51
2021/09/16 02:21:44;;;;;;;1.65;1.20;;;25.60;54.70;;;;;;5044997;28;20039;-58
2021/09/16 02:24:10;;;;;;;2.05;1.20;;;25.60;54.70;;;;;;5040525;28;20060;-51
2021/09/16 02:26:35;;;;;;;1.63;1.20;;;25.60;54.70;;;;;;5045821;28;20056;-58
2021/09/16 02:29:01;;;;;;;1.83;1.30;;;25.60;54.70;;;;;;5042457;28;20029;-58
2021/09/16 02:31:27;;;;;;;1.60;1.20;;;25.60;54.80;;;;;;5037226;28;20474;-54
2021/09/16 02:33:52;;;;;;;1.88;1.20;;;25.60;54.80;;;;;;5038093;28;20112;-58
2021/09/16 02:36:18;;;;;;;1.92;1.30;;;25.60;54.70;;;;;;5037747;28;20116;-53
2021/09/16 02:38:44;;;;;;;1.80;1.15;;;25.60;54.70;;;;;;5045774;28;20021;-58
2021/09/16 02:41:10;;;;;;;1.58;1.27;;;25.60;54.80;;;;;;5046243;28;20033;-58
2021/09/16 02:43:35;;;;;;;1.63;1.10;;;25.60;54.80;;;;;;5028481;28;20441;-59
2021/09/16 02:46:01;;;;;;;1.75;1.30;;;25.60;54.80;;;;;;5050381;28;20025;-50
2021/09/16 02:48:27;;;;;;;1.55;1.13;;;25.60;54.80;;;;;;5043525;28;20507;-54
2021/09/16 02:50:52;;;;;;;1.90;1.20;;;25.60;54.80;;;;;;5031396;28;20029;-58
2021/09/16 02:53:18;;;;;;;1.70;1.27;;;25.60;54.80;;;;;;5044189;28;20202;-58
2021/09/16 02:55:43;;;;;;;1.88;1.20;;;25.50;54.70;;;;;;5044928;28;20056;-54
2021/09/16 02:58:09;;;;;;;1.77;1.30;;;25.60;54.80;;;;;;5042540;28;20029;-49
2021/09/16 03:00:35;;;;;;;1.42;1.20;;;25.50;54.70;;;;;;5035272;28;20528;-54
2021/09/16 03:03:00;;;;;;;1.58;1.20;;;25.50;54.70;;;;;;5035788;28;20065;-55
2021/09/16 03:05:26;;;;;;;1.60;1.10;;;25.50;54.70;;;;;;5046907;28;20017;-51
2021/09/16 03:07:52;;;;;;;1.65;1.13;;;25.50;54.70;;;;;;5037776;28;20036;-52
2021/09/16 03:10:18;;;;;;;1.80;1.23;;;25.50;54.70;;;;;;5044048;28;20123;-47
2021/09/16 03:12:43;;;;;;;2.15;1.27;;;25.50;54.70;;;;;;5043897;28;20021;-59
2021/09/16 03:15:10;;;;;;;1.65;1.27;;;25.50;54.70;;;;;;5028699;28;20048;-53
2021/09/16 03:17:35;;;;;;;1.42;1.10;;;25.50;54.70;;;;;;5045271;28;20032;-58
2021/09/16 03:20:02;;;;;;;1.85;1.10;;;25.50;54.70;;;;;;5043016;28;20036;-59
2021/09/16 03:22:28;;;;;;;1.90;1.13;;;25.50;54.80;;;;;;5041240;28;20120;-52
2021/09/16 03:24:53;;;;;;;1.30;1.00;;;25.50;54.80;;;;;;5037209;28;20116;-53
2021/09/16 03:27:19;;;;;;;1.80;1.20;;;25.50;54.70;;;;;;5053670;28;20017;-59
2021/09/16 03:29:44;;;;;;;1.70;1.20;;;25.50;54.70;;;;;;5039099;28;20029;-58
2021/09/16 03:32:10;;;;;;;1.98;1.27;;;25.50;54.70;;;;;;5030518;28;20037;-52
2021/09/16 03:34:35;;;;;;;2.00;1.20;;;25.50;54.70;;;;;;5041105;28;20473;-53
2021/09/16 03:37:01;;;;;;;1.95;1.20;;;25.40;54.60;;;;;;5028757;28;20064;-55
2021/09/16 03:39:27;;;;;;;2.28;1.55;;;25.40;54.70;;;;;;5036264;28;20037;-53
2021/09/16 03:41:53;;;;;;;1.35;1.13;;;25.40;54.70;;;;;;5032830;28;20059;-53
2021/09/16 03:44:18;;;;;;;1.38;0.90;;;25.50;54.80;;;;;;5034171;28;20029;-59
2021/09/16 03:46:44;;;;;;;1.98;1.10;;;25.40;54.70;;;;;;5042130;28;20064;-53
2021/09/16 03:49:09;;;;;;;2.20;1.35;;;25.40;54.70;;;;;;5032582;28;20036;-55
2021/09/16 03:51:35;;;;;;;1.23;1.10;;;25.40;54.70;;;;;;5039781;28;20030;-57
2021/09/16 03:54:01;;;;;;;1.45;1.10;;;25.40;54.70;;;;;;5039969;28;20124;-58
2021/09/16 03:56:26;;;;;;;1.85;1.17;;;25.40;54.70;;;;;;5052149;28;20652;-57
2021/09/16 03:58:52;;;;;;;1.40;1.10;;;25.40;54.80;;;;;;5059389;28;20032;-51
2021/09/16 04:01:17;;;;;;;1.52;1.10;;;25.40;54.70;;;;;;5040110;28;20039;-58
2021/09/16 04:03:43;;;;;;;1.80;1.25;;;25.40;54.70;;;;;;5036021;28;20036;-58
2021/09/16 04:06:09;;;;;;;1.30;1.10;;;25.40;54.80;;;;;;5038671;28;20055;-52
2021/09/16 04:08:34;;;;;;;1.98;1.23;;;25.40;54.80;;;;;;5041481;28;20410;-50
2021/09/16 04:11:00;;;;;;;1.60;1.17;;;25.40;54.80;;;;;;5036347;28;20021;-53
2021/09/16 04:13:26;;;;;;;1.80;1.30;;;25.40;54.80;;;;;;5040953;28;20413;-52
2021/09/16 04:15:51;;;;;;;1.30;1.10;;;25.40;54.80;;;;;;5035473;28;20068;-53
2021/09/16 04:18:17;;;;;;;1.92;1.27;;;25.40;54.80;;;;;;5039658;28;20021;-58
2021/09/16 04:20:43;;;;;;;1.75;1.17;;;25.40;54.80;;;;;;5036557;28;20025;-52
2021/09/16 04:23:09;;;;;;;1.58;1.10;;;25.40;54.80;;;;;;5045485;28;20043;-58
2021/09/16 04:25:35;;;;;;;1.35;1.10;;;25.40;54.80;;;;;;5042564;28;20021;-49
2021/09/16 04:28:00;;;;;;;1.40;1.10;;;25.40;54.80;;;;;;5042590;28;20146;-57
2021/09/16 04:30:26;;;;;;;1.67;1.20;;;25.40;54.80;;;;;;5038834;28;20826;-56
2021/09/16 04:32:51;;;;;;;1.60;1.20;;;25.40;54.80;;;;;;5029626;28;20034;-58
2021/09/16 04:35:17;;;;;;;1.63;1.20;;;25.40;54.80;;;;;;5031219;28;20104;-53
2021/09/16 04:37:43;;;;;;;1.30;1.00;;;25.30;54.70;;;;;;5026786;28;20040;-57
2021/09/16 04:40:08;;;;;;;1.60;1.20;;;25.40;54.80;;;;;;5043653;28;20572;-57
2021/09/16 04:42:34;;;;;;;2.00;1.40;;;25.30;54.70;;;;;;5041550;28;20131;-58
2021/09/16 04:45:00;;;;;;;2.67;1.20;;;25.30;54.80;;;;;;5037743;28;20037;-50
2021/09/16 04:47:25;;;;;;;1.58;1.25;;;25.30;54.80;;;;;;5042942;28;20103;-53
2021/09/16 04:49:51;;;;;;;1.63;1.20;;;25.30;54.80;;;;;;5043061;28;20113;-57
2021/09/16 04:52:17;;;;;;;1.98;1.30;;;25.30;54.80;;;;;;5051628;28;20036;-53
2021/09/16 04:54:42;;;;;;;1.77;1.30;;;25.30;54.80;;;;;;5040474;28;20559;-58
2021/09/16 04:57:08;;;;;;;1.85;1.30;;;25.30;54.80;;;;;;5038405;28;20121;-56
2021/09/16 04:59:34;;;;;;;1.70;1.13;;;25.30;54.80;;;;;;5042060;28;20104;-55
2021/09/16 05:02:00;;;;;;;2.38;1.30;;;25.30;54.80;;;;;;5040405;28;20033;-57
2021/09/16 05:04:25;;;;;;;1.58;1.10;;;25.30;54.80;;;;;;5051409;28;20025;-57
2021/09/16 05:06:56;;;;;;;1.50;1.17;;;25.30;54.90;;;;;;5030539;28;20393;-54
2021/09/16 05:09:21;;;;;;;1.45;1.13;;;25.30;54.80;;;;;;5038560;28;20079;-52
2021/09/16 05:11:48;;;;;;;2.38;1.40;;;25.30;54.90;;;;;;5041206;28;20025;-49
2021/09/16 05:14:14;;;;;;;1.50;1.20;;;25.30;54.90;;;;;;5042782;28;20025;-51
2021/09/16 05:16:40;;;;;;;1.33;1.13;;;25.30;54.90;;;;;;5045391;28;20029;-51
2021/09/16 05:19:06;;;;;;;1.67;1.27;;;25.30;54.80;;;;;;5046724;28;20041;-59
2021/09/16 05:21:32;;;;;;;1.58;1.33;;;25.30;54.90;;;;;;5044059;28;20045;-54
2021/09/16 05:23:57;;;;;;;1.58;1.20;;;25.30;55.40;;;;;;5043434;28;20044;-51
2021/09/16 05:26:23;;;;;;;1.30;1.10;;;25.30;54.90;;;;;;5032172;28;20116;-50
2021/09/16 05:28:49;;;;;;;1.73;1.20;;;25.30;54.80;;;;;;5036675;28;20092;-57
2021/09/16 05:31:14;;;;;;;1.77;1.20;;;25.30;54.90;;;;;;5039395;28;20135;-53
2021/09/16 05:33:40;;;;;;;1.27;1.05;;;25.30;54.90;;;;;;5048253;28;20029;-49
2021/09/16 05:36:06;;;;;;;1.70;1.20;;;25.30;54.90;;;;;;5040924;28;20051;-47
2021/09/16 05:38:31;;;;;;;1.42;1.20;;;25.40;54.80;;;;;;5033923;28;20397;-54
2021/09/16 05:40:57;;;;;;;2.00;1.20;;;25.40;54.70;;;;;;5040195;28;20044;-50
2021/09/16 05:43:23;;;;;;;1.88;1.30;;;25.40;54.60;;;;;;5048367;28;20032;-57
2021/09/16 05:45:50;;;;;;;1.65;1.10;;;25.40;54.50;;;;;;5046263;28;20140;-57
2021/09/16 05:48:16;;;;;;;1.58;1.20;;;25.40;54.40;;;;;;5049710;28;20041;-57
2021/09/16 05:50:41;;;;;;;1.73;1.30;;;25.50;54.50;;;;;;5047401;28;20036;-56
2021/09/16 05:53:09;;;;;;;2.40;1.40;;;25.50;54.40;;;;;;5041373;28;20037;-48
2021/09/16 05:55:38;;;;;;;1.58;1.30;;;25.50;54.30;;;;;;5047810;28;20033;-50
2021/09/16 05:58:04;;;;;;;1.58;1.27;;;25.60;54.30;;;;;;5050143;28;20033;-51
2021/09/16 06:00:30;;;;;;;1.95;1.40;;;25.60;54.20;;;;;;5043534;28;20037;-55
2021/09/16 06:02:55;;;;;;;1.88;1.40;;;25.60;54.20;;;;;;5035257;28;20025;-57
2021/09/16 06:05:21;;;;;;;1.88;1.48;;;25.70;54.70;;;;;;5053425;28;20033;-51
2021/09/16 06:07:47;;;;;;;1.90;1.30;;;25.70;54.60;;;;;;5044860;28;20062;-51
2021/09/16 06:10:13;;;;;;;1.98;1.25;;;25.70;54.10;;;;;;5037206;28;20092;-50
2021/09/16 06:12:38;;;;;;;1.77;1.40;;;25.70;54.00;;;;;;5033435;28;20033;-55
2021/09/16 06:15:05;;;;;;;1.80;1.38;;;25.70;54.00;;;;;;5038554;28;20033;-50
2021/09/16 06:17:30;;;;;;;1.95;1.38;;;25.80;54.00;;;;;;5048554;28;20073;-55
2021/09/16 06:19:56;;;;;;;1.77;1.23;;;25.80;53.90;;;;;;5054114;28;20115;-55
2021/09/16 06:22:21;;;;;;;1.65;1.33;;;25.80;53.90;;;;;;5053189;28;20037;-53
2021/09/16 06:24:48;;;;;;;2.00;1.58;;;25.80;53.80;;;;;;5057196;28;20032;-54
2021/09/16 06:27:13;;;;;;;2.33;1.30;;;25.80;53.80;;;;;;5054194;28;20116;-52
2021/09/16 06:29:39;;;;;;;2.20;1.70;;;25.90;53.80;;;;;;5050898;28;20086;-52
2021/09/16 06:32:05;;;;;;;1.70;1.30;;;25.90;53.70;;;;;;5055841;28;20064;-55
2021/09/16 06:34:31;;;;;;;2.20;1.50;;;25.90;53.70;;;;;;5054072;28;20033;-56
2021/09/16 06:36:58;;;;;;;2.10;1.40;;;25.90;54.20;;;;;;5051268;28;20025;-52
2021/09/16 06:39:23;;;;;;;2.50;1.30;;;25.90;53.60;;;;;;5048828;28;20021;-55
2021/09/16 06:41:49;;;;;;;2.50;1.27;;;26.00;53.80;;;;;;5049658;28;20033;-52
2021/09/16 06:44:15;;;;;;;1.52;1.10;;;26.00;53.80;;;;;;5044325;28;20084;-56
2021/09/16 06:46:40;;;;;;;2.90;1.13;;;26.00;53.80;;;;;;5037400;28;20029;-53
2021/09/16 06:49:06;;;;;;;1.70;1.10;;;26.00;53.70;;;;;;5039555;28;20479;-46
2021/09/16 06:51:31;;;;;;;1.50;1.27;;;26.00;54.00;;;;;;5045424;28;20059;-57
2021/09/16 06:53:57;;;;;;;1.65;1.30;;;26.00;53.70;;;;;;5032132;28;20079;-54
2021/09/16 06:56:23;;;;;;;2.05;1.30;;;26.00;53.60;;;;;;5032282;28;20111;-56
2021/09/16 06:58:48;;;;;;;1.67;1.20;;;26.10;53.70;;;;;;5039384;28;20535;-53
2021/09/16 07:01:14;;;;;;;1.95;1.30;;;26.10;53.60;;;;;;5034671;28;20033;-52
2021/09/16 07:03:39;;;;;;;1.70;1.30;;;26.10;53.60;;;;;;5030926;28;20465;-45
2021/09/16 07:06:05;;;;;;;2.30;1.30;;;26.20;53.60;;;;;;5036911;28;20509;-57
2021/09/16 07:08:31;;;;;;;1.73;1.30;;;26.20;53.50;;;;;;5031867;28;20048;-49
2021/09/16 07:10:56;;;;;;;1.60;1.20;;;26.20;53.40;;;;;;5037771;28;20105;-59
2021/09/16 07:13:22;;;;;;;2.20;1.30;;;26.20;53.40;;;;;;5039518;28;20036;-53
2021/09/16 07:15:47;;;;;;;2.03;1.35;;;26.20;53.30;;;;;;5039564;28;20068;-53
2021/09/16 07:18:13;;;;;;;2.35;1.55;;;26.20;53.30;;;;;;5031868;28;20472;-57
2021/09/16 07:20:39;;;;;;;1.77;1.27;;;26.20;53.30;;;;;;5036687;28;20129;-51
2021/09/16 07:23:04;;;;;;;1.75;1.30;;;26.30;53.30;;;;;;5054678;28;20036;-57
2021/09/16 07:25:30;;;;;;;2.22;1.30;;;26.30;53.50;;;;;;5050082;28;20152;-54
2021/09/16 07:27:55;;;;;;;2.15;1.35;;;26.30;53.40;;;;;;5029250;28;20036;-57
2021/09/16 07:30:22;;;;;;;2.42;1.40;;;26.30;53.40;;;;;;5041388;28;20040;-57
2021/09/16 07:32:48;;;;;;;1.75;1.30;;;26.30;53.30;;;;;;5037282;28;20020;-57
2021/09/16 07:35:13;;;;;;;2.00;1.30;;;26.30;53.30;;;;;;5043357;28;20135;-54
2021/09/16 07:37:40;;;;;;;1.80;1.35;;;26.30;53.20;;;;;;5034500;28;20355;-53
2021/09/16 07:40:06;;;;;;;1.80;1.40;;;26.30;53.20;;;;;;5031054;28;20486;-50
2021/09/16 07:42:31;;;;;;;2.08;1.45;;;26.40;53.40;;;;;;5042003;28;20095;-55
2021/09/16 07:44:57;;;;;;;1.70;1.20;;;26.40;53.50;;;;;;5035114;28;20465;-53
2021/09/16 07:47:23;;;;;;;3.22;2.20;;;26.40;53.50;;;;;;5032973;28;20017;-49
2021/09/16 07:49:48;;;;;;;4.50;3.00;;;26.40;54.60;;;;;;5046250;28;20163;-48
2021/09/16 07:52:14;;;;;;;3.90;2.97;;;26.30;55.10;;;;;;5037524;28;20028;-54
2021/09/16 07:54:41;;;;;;;4.18;3.08;;;26.40;55.30;;;;;;5039138;28;20116;-55
2021/09/16 07:57:06;;;;;;;2.90;2.38;;;26.40;54.90;;;;;;5027063;28;20025;-52
2021/09/16 07:59:33;;;;;;;2.67;1.67;;;26.40;54.80;;;;;;5034630;28;20636;-57
2021/09/16 08:01:58;;;;;;;2.58;1.98;;;26.40;54.60;;;;;;5031316;28;20037;-52
2021/09/16 08:04:24;;;;;;;3.50;2.40;;;26.40;54.60;;;;;;5038523;28;20021;-55
2021/09/16 08:06:50;;;;;;;3.33;2.20;;;26.40;54.60;;;;;;5029750;28;20096;-55
2021/09/16 08:09:16;;;;;;;3.13;2.10;;;26.40;54.50;;;;;;5029702;28;20021;-57
2021/09/16 08:11:41;;;;;;;3.08;2.30;;;26.40;54.40;;;;;;5042364;28;20053;-56
2021/09/16 08:14:08;;;;;;;3.63;2.05;;;26.40;54.30;;;;;;5027623;28;20033;-50
2021/09/16 08:16:34;;;;;;;3.58;2.40;;;26.40;54.20;;;;;;5040091;28;20067;-53
2021/09/16 08:19:00;;;;;;;4.13;2.42;;;26.40;54.70;;;;;;5034637;28;20472;-56
2021/09/16 08:21:27;;;;;;;3.22;2.40;;;26.40;54.30;;;;;;5027649;28;20064;-54
2021/09/16 08:23:53;;;;;;;2.65;2.00;;;26.40;54.30;;;;;;5031181;28;20041;-45
2021/09/16 08:26:18;;;;;;;3.03;2.25;;;26.50;54.30;;;;;;5029806;28;20164;-57
2021/09/16 08:28:44;;;;;;;3.22;2.10;;;26.40;54.20;;;;;;5024783;28;20424;-56
2021/09/16 08:31:10;;;;;;;3.75;2.17;;;26.50;54.30;;;;;;5032831;28;20037;-55
2021/09/16 08:33:36;;;;;;;2.75;2.00;;;26.50;54.30;;;;;;5028011;28;20068;-55
2021/09/16 08:36:02;;;;;;;2.97;1.95;;;26.50;54.20;;;;;;5049922;28;20117;-53
2021/09/16 08:38:28;;;;;;;2.78;1.98;;;26.50;54.60;;;;;;5029141;28;20044;-57
2021/09/16 08:40:54;;;;;;;3.75;2.00;;;26.50;54.20;;;;;;5038050;28;20044;-56
2021/09/16 08:43:21;;;;;;;2.70;2.00;;;26.50;54.10;;;;;;5037664;28;20029;-53
2021/09/16 08:45:48;;;;;;;2.75;2.10;;;26.50;54.20;;;;;;5046558;28;20419;-50
2021/09/16 08:48:14;;;;;;;4.15;2.08;;;26.50;54.20;;;;;;5026534;28;20018;-56
2021/09/16 08:50:40;;;;;;;2.90;2.10;;;26.60;54.20;;;;;;5031271;28;20025;-56
2021/09/16 08:53:06;;;;;;;3.60;2.70;;;26.50;54.20;;;;;;5030694;28;20141;-58
2021/09/16 08:55:33;;;;;;;3.80;2.10;;;26.50;54.30;;;;;;5042615;28;20087;-53
2021/09/16 08:58:03;;;;;;;2.88;2.25;;;26.60;54.40;;;;;;5033060;28;20106;-57
2021/09/16 09:00:31;;;;;;;2.63;2.05;;;26.60;54.30;;;;;;5027428;28;20064;-52
2021/09/16 09:02:57;;;;;;;2.67;2.10;;;26.60;54.20;;;;;;5031775;28;20029;-55
2021/09/16 09:05:26;;;;;;;3.38;2.30;;;26.60;54.20;;;;;;5033638;28;20029;-49
2021/09/16 09:07:55;;;;;;;3.20;2.28;;;26.60;54.80;;;;;;5032495;28;20026;-55
2021/09/16 09:10:31;;;;;;;3.15;2.17;;;26.60;54.30;;;;;;5034011;28;20020;-57
2021/09/16 09:12:57;;;;;;;3.15;2.60;;;26.60;54.20;;;;;;5033837;28;20353;-52
2021/09/16 09:15:23;;;;;;;3.47;2.45;;;26.70;54.30;;;;;;5038660;28;20025;-52
2021/09/16 09:18:02;;;;;;;3.15;2.53;;;26.60;54.20;;;;;;5054286;28;20036;-57
2021/09/16 09:20:27;;;;;;;4.50;2.73;;;26.70;54.40;;;;;;5043830;28;20086;-56
2021/09/16 09:22:53;;;;;;;2.97;2.05;;;26.60;54.40;;;;;;5041958;28;20037;-57
2021/09/16 09:25:19;;;;;;;4.20;2.10;;;26.60;54.60;;;;;;5049109;28;20048;-45
2021/09/16 09:27:49;;;;;;;3.53;2.47;;;26.60;54.40;;;;;;5034010;28;20025;-56
2021/09/16 09:30:20;;;;;;;3.50;2.13;;;26.70;54.40;;;;;;5041399;28;20036;-57
2021/09/16 09:33:05;;;;;;;3.33;2.20;;;26.60;54.60;;;;;;5061298;28;20021;-57
2021/09/16 09:35:37;;;;;;;3.70;2.15;;;26.70;54.50;;;;;;5031071;28;20140;-50
2021/09/16 09:38:15;;;;;;;3.10;2.00;;;26.60;54.40;;;;;;5042314;28;20025;-57
2021/09/16 09:40:42;;;;;;;3.30;2.05;;;26.60;54.50;;;;;;5065569;28;20381;-54
2021/09/16 09:43:28;;;;;;;2.55;1.85;;;26.70;54.50;;;;;;5042228;28;20547;-56
2021/09/16 09:45:58;;;;;;;3.13;1.80;;;26.70;54.20;;;;;;5046044;28;20059;-52
2021/09/16 09:48:24;;;;;;;3.88;2.28;;;26.70;54.30;;;;;;5045615;28;20087;-49
2021/09/16 09:50:54;;;;;;;2.80;1.90;;;26.70;54.30;;;;;;5038709;28;20029;-52
2021/09/16 09:53:19;;;;;;;3.05;2.08;;;26.70;54.00;;;;;;5042827;28;20108;-54
2021/09/16 09:55:45;;;;;;;3.65;2.10;;;26.70;54.10;;;;;;5058750;28;20060;-56
2021/09/16 09:58:11;;;;;;;2.65;1.90;;;26.70;54.50;;;;;;5043486;28;20030;-58
2021/09/16 10:00:37;;;;;;;2.72;1.92;;;26.70;54.00;;;;;;5041259;28;20108;-47
2021/09/16 10:03:04;;;;;;;4.07;2.00;;;26.80;53.90;;;;;;5035370;28;20033;-56
2021/09/16 10:05:37;;;;;;;2.78;1.80;;;26.70;53.70;;;;;;5040485;28;20585;-52
2021/09/16 10:08:09;;;;;;;2.53;1.90;;;26.80;54.40;;;;;;5044910;28;20025;-57
2021/09/16 10:10:42;;;;;;;2.58;1.98;;;26.80;53.70;;;;;;5053243;28;20033;-53
2021/09/16 10:13:11;;;;;;;3.85;2.25;;;26.80;53.70;;;;;;5046649;28;20096;-48
2021/09/16 10:15:36;;;;;;;3.60;1.98;;;26.80;54.30;;;;;;5043877;28;20135;-52
2021/09/16 10:18:02;;;;;;;2.28;1.73;;;26.80;53.70;;;;;;5042620;28;20156;-50
2021/09/16 10:20:28;;;;;;;2.38;1.65;;;26.80;53.60;;;;;;5039691;28;20093;-54
2021/09/16 10:22:57;;;;;;;2.40;1.77;;;26.80;53.60;;;;;;5034783;28;20172;-50
2021/09/16 10:25:25;;;;;;;3.70;1.88;;;26.80;53.50;;;;;;5044180;28;20472;-53
2021/09/16 10:28:02;;;;;;;2.45;1.70;;;26.80;53.50;;;;;;5043134;28;20037;-54
2021/09/16 10:30:45;;;;;;;3.30;1.90;;;26.80;53.50;;;;;;5037969;28;20462;-48
2021/09/16 10:33:11;;;;;;;2.83;1.63;;;26.80;53.50;;;;;;5031764;28;20039;-56
2021/09/16 10:36:08;;;;;;;2.53;1.75;;;26.80;53.50;;;;;;5049148;28;20048;-58
2021/09/16 10:38:42;;;;;;;2.47;1.80;;;26.80;53.40;;;;;;5029839;28;20140;-55
2021/09/16 10:41:13;;;;;;;2.90;2.00;;;26.80;53.50;;;;;;5052371;28;20180;-56
2021/09/16 10:43:40;;;;;;;2.50;1.67;;;26.80;53.40;;;;;;5045989;28;20025;-55
2021/09/16 10:46:21;;;;;;;2.55;1.80;;;26.80;53.40;;;;;;5046994;28;20457;-51
2021/09/16 10:48:47;;;;;;;2.63;1.45;;;26.80;53.40;;;;;;5044527;28;20091;-53
2021/09/16 10:51:14;;;;;;;2.58;1.70;;;26.80;53.70;;;;;;5051296;28;20037;-51
2021/09/16 10:53:45;;;;;;;2.25;1.60;;;26.80;53.80;;;;;;5035192;28;20041;-58
2021/09/16 10:56:26;;;;;;;2.50;1.70;;;26.80;53.60;;;;;;5035882;28;20028;-58
2021/09/16 10:58:54;;;;;;;2.70;1.80;;;26.80;53.60;;;;;;5029207;28;20170;-56
2021/09/16 11:01:58;;;;;;;2.88;1.80;;;26.80;53.50;;;;;;5035504;28;20430;-57
2021/09/16 11:04:23;;;;;;;3.17;1.67;;;26.80;53.40;;;;;;5038612;28;20037;-52
2021/09/16 11:06:49;;;;;;;3.25;2.00;;;26.80;53.40;;;;;;5032535;28;20735;-58
2021/09/16 11:09:26;;;;;;;2.75;1.60;;;26.80;53.40;;;;;;5032729;28;20026;-58
2021/09/16 11:11:55;;;;;;;2.53;1.55;;;26.90;53.40;;;;;;5028838;28;20044;-57
2021/09/16 11:14:32;;;;;;;2.90;1.70;;;26.90;53.40;;;;;;5037690;28;20319;-59
2021/09/16 11:16:58;;;;;;;2.70;1.63;;;26.90;53.40;;;;;;5030931;28;20021;-54
2021/09/16 11:19:24;;;;;;;2.33;1.70;;;26.90;53.60;;;;;;5041697;28;20485;-53
2021/09/16 11:22:10;;;;;;;2.40;1.70;;;26.90;53.40;;;;;;5038300;28;20024;-57
2021/09/16 11:24:41;;;;;;;2.83;1.88;;;26.90;53.50;;;;;;5038572;28;20092;-55
2021/09/16 11:27:10;;;;;;;2.67;1.70;;;26.90;53.40;;;;;;5037483;28;20093;-55
2021/09/16 11:29:39;;;;;;;2.30;1.67;;;26.90;53.40;;;;;;5036533;28;20028;-60
2021/09/16 11:32:05;;;;;;;2.70;1.70;;;26.90;53.30;;;;;;5038319;28;20284;-48
2021/09/16 11:34:31;;;;;;;3.00;1.80;;;26.90;53.30;;;;;;5045767;28;20054;-59
2021/09/16 11:37:07;;;;;;;2.70;1.80;;;27.00;53.40;;;;;;5037280;28;20021;-54
2021/09/16 11:39:33;;;;;;;2.42;1.70;;;27.00;53.40;;;;;;5044971;28;20041;-52
2021/09/16 11:42:14;;;;;;;2.55;1.70;;;27.00;53.40;;;;;;5033935;28;20053;-54
2021/09/16 11:45:14;;;;;;;2.42;1.58;;;27.00;53.40;;;;;;5038764;28;20124;-58
2021/09/16 11:47:46;;;;;;;2.28;1.58;;;27.00;53.40;;;;;;5032535;28;20037;-52
2021/09/16 11:50:22;;;;;;;2.45;1.65;;;27.00;53.50;;;;;;5036398;28;20017;-52
2021/09/16 11:52:53;;;;;;;3.22;1.80;;;27.00;53.40;;;;;;5036586;28;20025;-60
2021/09/16 11:55:19;;;;;;;2.30;1.70;;;27.00;53.40;;;;;;5034773;28;20075;-56
2021/09/16 11:58:05;;;;;;;2.58;1.55;;;27.00;53.40;;;;;;5030982;28;20442;-56
2021/09/16 12:00:35;;;;;;;2.50;1.63;;;27.00;53.40;;;;;;5036890;28;20180;-55
2021/09/16 12:03:04;;;;;;;3.15;1.65;;;27.10;53.50;;;;;;5034136;28;20060;-55
2021/09/16 12:05:38;;;;;;;2.63;1.50;;;27.00;53.50;;;;;;5041466;28;20029;-56
2021/09/16 12:08:05;;;;;;;2.30;1.70;;;27.10;53.50;;;;;;5034307;28;20033;-59
2021/09/16 12:10:36;;;;;;;2.47;1.63;;;27.10;53.50;;;;;;5036870;28;20036;-57
2021/09/16 12:13:02;;;;;;;1.90;1.38;;;27.10;53.50;;;;;;5034605;28;20148;-58
2021/09/16 12:15:27;;;;;;;2.15;1.50;;;27.10;53.50;;;;;;5028210;28;20029;-58
2021/09/16 12:17:53;;;;;;;2.65;1.50;;;27.10;53.50;;;;;;5039496;28;20029;-56
2021/09/16 12:20:20;;;;;;;2.47;1.65;;;27.10;53.80;;;;;;5038183;28;20049;-58
2021/09/16 12:22:45;;;;;;;2.00;1.52;;;27.10;53.70;;;;;;5038883;28;20035;-59
2021/09/16 12:25:11;;;;;;;2.38;1.77;;;27.10;53.60;;;;;;5037754;28;20111;-60
2021/09/16 12:27:36;;;;;;;2.10;1.60;;;27.10;53.60;;;;;;5040149;28;20525;-54
2021/09/16 12:30:19;;;;;;;2.03;1.50;;;27.10;53.50;;;;;;5037701;28;20033;-59
2021/09/16 12:32:45;;;;;;;2.60;1.70;;;27.10;53.50;;;;;;5032969;28;20026;-57
2021/09/16 12:35:17;;;;;;;1.90;1.40;;;27.10;53.50;;;;;;5031031;28;20097;-58
2021/09/16 12:37:43;;;;;;;1.90;1.38;;;27.20;53.50;;;;;;5031007;28;20030;-56
2021/09/16 12:40:25;;;;;;;2.45;1.70;;;27.20;53.50;;;;;;5031413;28;20060;-52
2021/09/16 12:43:01;;;;;;;2.38;1.58;;;27.20;53.50;;;;;;5032285;28;20116;-60
2021/09/16 12:45:28;;;;;;;2.35;1.60;;;27.20;53.50;;;;;;5041035;28;20108;-61
2021/09/16 12:47:54;;;;;;;2.47;1.55;;;27.20;53.60;;;;;;5038610;28;20112;-58